sensor_id;sensor_type;location;lat;lon;timestamp;P1;durP1;ratioP1;P2;durP2;ratioP2
63201;SDS011;49296;48.188;11.566;2023-07-09T00:02:13;10.10;;;7.80;;
63201;SDS011;49296;48.188;11.566;2023-07-09T00:04:40;11.10;;;8.40;;
63201;SDS011;49296;48.188;11.566;2023-07-09T00:07:11;10.85;;;7.95;;
63201;SDS011;49296;48.188;11.566;2023-07-09T00:09:43;10.93;;;7.93;;
63201;SDS011;49296;48.188;11.566;2023-07-09T00:12:11;11.38;;;8.73;;
63201;SDS011;49296;48.188;11.566;2023-07-09T00:14:39;10.07;;;8.20;;
63201;SDS011;49296;48.188;11.566;2023-07-09T00:17:07;11.27;;;8.70;;
63201;SDS011;49296;48.188;11.566;2023-07-09T00:19:37;11.50;;;9.75;;
63201;SDS011;49296;48.188;11.566;2023-07-09T00:22:07;10.82;;;8.13;;
63201;SDS011;49296;48.188;11.566;2023-07-09T00:24:41;12.82;;;8.00;;
63201;SDS011;49296;48.188;11.566;2023-07-09T00:27:09;12.55;;;8.52;;
63201;SDS011;49296;48.188;11.566;2023-07-09T00:29:36;11.68;;;8.95;;
63201;SDS011;49296;48.188;11.566;2023-07-09T00:32:03;11.35;;;8.70;;
63201;SDS011;49296;48.188;11.566;2023-07-09T00:34:31;9.75;;;8.07;;
63201;SDS011;49296;48.188;11.566;2023-07-09T00:37:00;10.70;;;8.20;;
63201;SDS011;49296;48.188;11.566;2023-07-09T00:39:27;10.15;;;7.97;;
63201;SDS011;49296;48.188;11.566;2023-07-09T00:41:53;11.32;;;7.97;;
63201;SDS011;49296;48.188;11.566;2023-07-09T00:44:27;10.35;;;7.88;;
63201;SDS011;49296;48.188;11.566;2023-07-09T00:49:51;11.02;;;7.90;;
63201;SDS011;49296;48.188;11.566;2023-07-09T00:52:28;11.77;;;8.48;;
63201;SDS011;49296;48.188;11.566;2023-07-09T00:55:01;11.10;;;7.88;;
63201;SDS011;49296;48.188;11.566;2023-07-09T00:57:32;10.68;;;7.25;;
63201;SDS011;49296;48.188;11.566;2023-07-09T01:00:04;10.05;;;7.40;;
63201;SDS011;49296;48.188;11.566;2023-07-09T01:02:36;10.77;;;8.32;;
63201;SDS011;49296;48.188;11.566;2023-07-09T01:05:03;12.18;;;7.70;;
63201;SDS011;49296;48.188;11.566;2023-07-09T01:07:32;10.25;;;7.75;;
63201;SDS011;49296;48.188;11.566;2023-07-09T01:09:59;10.40;;;7.97;;
63201;SDS011;49296;48.188;11.566;2023-07-09T01:12:27;10.18;;;7.50;;
63201;SDS011;49296;48.188;11.566;2023-07-09T01:14:55;11.70;;;7.87;;
63201;SDS011;49296;48.188;11.566;2023-07-09T01:17:24;13.25;;;8.93;;
63201;SDS011;49296;48.188;11.566;2023-07-09T01:19:53;10.30;;;8.07;;
63201;SDS011;49296;48.188;11.566;2023-07-09T01:22:22;9.73;;;7.15;;
63201;SDS011;49296;48.188;11.566;2023-07-09T01:24:54;10.95;;;7.60;;
63201;SDS011;49296;48.188;11.566;2023-07-09T01:27:28;10.23;;;7.15;;
63201;SDS011;49296;48.188;11.566;2023-07-09T01:32:22;8.65;;;7.25;;
63201;SDS011;49296;48.188;11.566;2023-07-09T01:34:50;9.32;;;6.90;;
63201;SDS011;49296;48.188;11.566;2023-07-09T01:37:20;8.70;;;6.53;;
63201;SDS011;49296;48.188;11.566;2023-07-09T01:39:50;10.02;;;6.60;;
63201;SDS011;49296;48.188;11.566;2023-07-09T01:42:18;9.77;;;6.57;;
63201;SDS011;49296;48.188;11.566;2023-07-09T01:44:47;9.90;;;7.13;;
63201;SDS011;49296;48.188;11.566;2023-07-09T01:47:14;9.48;;;7.80;;
63201;SDS011;49296;48.188;11.566;2023-07-09T01:49:41;10.32;;;7.57;;
63201;SDS011;49296;48.188;11.566;2023-07-09T01:52:11;8.80;;;7.72;;
63201;SDS011;49296;48.188;11.566;2023-07-09T01:54:42;10.10;;;7.60;;
63201;SDS011;49296;48.188;11.566;2023-07-09T01:57:16;9.70;;;7.00;;
63201;SDS011;49296;48.188;11.566;2023-07-09T01:59:48;9.48;;;7.53;;
63201;SDS011;49296;48.188;11.566;2023-07-09T02:02:15;10.73;;;8.07;;
63201;SDS011;49296;48.188;11.566;2023-07-09T02:04:47;9.57;;;8.32;;
63201;SDS011;49296;48.188;11.566;2023-07-09T02:07:15;10.20;;;7.72;;
63201;SDS011;49296;48.188;11.566;2023-07-09T02:09:43;10.75;;;7.70;;
63201;SDS011;49296;48.188;11.566;2023-07-09T02:12:11;9.55;;;7.45;;
63201;SDS011;49296;48.188;11.566;2023-07-09T02:14:39;9.90;;;7.80;;
63201;SDS011;49296;48.188;11.566;2023-07-09T02:17:07;9.73;;;7.00;;
63201;SDS011;49296;48.188;11.566;2023-07-09T02:19:34;8.88;;;6.85;;
63201;SDS011;49296;48.188;11.566;2023-07-09T02:22:01;10.27;;;6.90;;
63201;SDS011;49296;48.188;11.566;2023-07-09T02:24:28;7.78;;;6.47;;
63201;SDS011;49296;48.188;11.566;2023-07-09T02:26:57;9.40;;;7.40;;
63201;SDS011;49296;48.188;11.566;2023-07-09T02:29:26;8.73;;;6.80;;
63201;SDS011;49296;48.188;11.566;2023-07-09T02:31:54;9.52;;;6.78;;
63201;SDS011;49296;48.188;11.566;2023-07-09T02:34:23;9.93;;;7.18;;
63201;SDS011;49296;48.188;11.566;2023-07-09T02:36:51;10.32;;;6.38;;
63201;SDS011;49296;48.188;11.566;2023-07-09T02:39:18;10.23;;;7.10;;
63201;SDS011;49296;48.188;11.566;2023-07-09T02:41:46;9.95;;;6.88;;
63201;SDS011;49296;48.188;11.566;2023-07-09T02:44:14;9.15;;;7.15;;
63201;SDS011;49296;48.188;11.566;2023-07-09T02:46:42;9.02;;;6.78;;
63201;SDS011;49296;48.188;11.566;2023-07-09T02:49:10;9.02;;;6.68;;
63201;SDS011;49296;48.188;11.566;2023-07-09T02:51:38;9.18;;;6.80;;
63201;SDS011;49296;48.188;11.566;2023-07-09T02:54:05;11.45;;;7.32;;
63201;SDS011;49296;48.188;11.566;2023-07-09T02:56:33;8.52;;;6.93;;
63201;SDS011;49296;48.188;11.566;2023-07-09T02:59:00;9.38;;;6.65;;
63201;SDS011;49296;48.188;11.566;2023-07-09T03:01:28;10.40;;;6.88;;
63201;SDS011;49296;48.188;11.566;2023-07-09T03:03:55;9.63;;;6.82;;
63201;SDS011;49296;48.188;11.566;2023-07-09T03:06:23;8.65;;;6.95;;
63201;SDS011;49296;48.188;11.566;2023-07-09T03:08:50;10.93;;;6.85;;
63201;SDS011;49296;48.188;11.566;2023-07-09T03:11:18;8.50;;;6.65;;
63201;SDS011;49296;48.188;11.566;2023-07-09T03:13:46;8.70;;;6.80;;
63201;SDS011;49296;48.188;11.566;2023-07-09T03:16:13;10.65;;;7.63;;
63201;SDS011;49296;48.188;11.566;2023-07-09T03:18:43;9.73;;;6.90;;
63201;SDS011;49296;48.188;11.566;2023-07-09T03:21:09;11.63;;;6.85;;
63201;SDS011;49296;48.188;11.566;2023-07-09T03:23:36;8.88;;;6.78;;
63201;SDS011;49296;48.188;11.566;2023-07-09T03:26:03;11.85;;;7.03;;
63201;SDS011;49296;48.188;11.566;2023-07-09T03:28:31;8.75;;;6.40;;
63201;SDS011;49296;48.188;11.566;2023-07-09T03:30:58;9.00;;;6.88;;
63201;SDS011;49296;48.188;11.566;2023-07-09T03:33:25;9.25;;;6.90;;
63201;SDS011;49296;48.188;11.566;2023-07-09T03:35:54;9.80;;;7.18;;
63201;SDS011;49296;48.188;11.566;2023-07-09T03:38:21;9.00;;;6.88;;
63201;SDS011;49296;48.188;11.566;2023-07-09T03:40:49;8.85;;;7.25;;
63201;SDS011;49296;48.188;11.566;2023-07-09T03:43:16;11.10;;;7.18;;
63201;SDS011;49296;48.188;11.566;2023-07-09T03:45:43;8.80;;;6.93;;
63201;SDS011;49296;48.188;11.566;2023-07-09T03:48:11;9.25;;;7.07;;
63201;SDS011;49296;48.188;11.566;2023-07-09T03:50:38;8.75;;;7.35;;
63201;SDS011;49296;48.188;11.566;2023-07-09T03:53:06;10.25;;;7.40;;
63201;SDS011;49296;48.188;11.566;2023-07-09T03:55:33;9.73;;;7.60;;
63201;SDS011;49296;48.188;11.566;2023-07-09T03:58:00;8.25;;;6.93;;
63201;SDS011;49296;48.188;11.566;2023-07-09T04:00:28;11.23;;;7.40;;
63201;SDS011;49296;48.188;11.566;2023-07-09T04:02:55;10.05;;;7.40;;
63201;SDS011;49296;48.188;11.566;2023-07-09T04:05:22;9.18;;;6.65;;
63201;SDS011;49296;48.188;11.566;2023-07-09T04:07:50;9.82;;;7.07;;
63201;SDS011;49296;48.188;11.566;2023-07-09T04:10:18;9.57;;;6.85;;
63201;SDS011;49296;48.188;11.566;2023-07-09T04:12:46;8.75;;;6.40;;
63201;SDS011;49296;48.188;11.566;2023-07-09T04:15:13;9.15;;;6.45;;
63201;SDS011;49296;48.188;11.566;2023-07-09T04:17:40;9.25;;;6.97;;
63201;SDS011;49296;48.188;11.566;2023-07-09T04:20:07;8.23;;;6.20;;
63201;SDS011;49296;48.188;11.566;2023-07-09T04:22:35;7.72;;;6.47;;
63201;SDS011;49296;48.188;11.566;2023-07-09T04:25:03;8.02;;;6.30;;
63201;SDS011;49296;48.188;11.566;2023-07-09T04:27:33;9.60;;;6.30;;
63201;SDS011;49296;48.188;11.566;2023-07-09T04:30:00;13.07;;;6.88;;
63201;SDS011;49296;48.188;11.566;2023-07-09T04:32:27;9.15;;;6.95;;
63201;SDS011;49296;48.188;11.566;2023-07-09T04:34:54;7.72;;;6.00;;
63201;SDS011;49296;48.188;11.566;2023-07-09T04:37:21;11.40;;;6.55;;
63201;SDS011;49296;48.188;11.566;2023-07-09T04:39:48;10.43;;;7.05;;
63201;SDS011;49296;48.188;11.566;2023-07-09T04:42:15;7.88;;;6.30;;
63201;SDS011;49296;48.188;11.566;2023-07-09T04:44:45;9.15;;;6.43;;
63201;SDS011;49296;48.188;11.566;2023-07-09T04:47:12;9.23;;;6.70;;
63201;SDS011;49296;48.188;11.566;2023-07-09T04:49:39;9.23;;;6.68;;
63201;SDS011;49296;48.188;11.566;2023-07-09T04:52:07;8.68;;;6.32;;
63201;SDS011;49296;48.188;11.566;2023-07-09T04:54:36;8.32;;;6.00;;
63201;SDS011;49296;48.188;11.566;2023-07-09T04:57:05;8.80;;;6.72;;
63201;SDS011;49296;48.188;11.566;2023-07-09T04:59:32;8.32;;;6.50;;
63201;SDS011;49296;48.188;11.566;2023-07-09T05:02:01;8.77;;;6.35;;
63201;SDS011;49296;48.188;11.566;2023-07-09T05:04:27;8.75;;;6.63;;
63201;SDS011;49296;48.188;11.566;2023-07-09T05:06:54;8.27;;;6.13;;
63201;SDS011;49296;48.188;11.566;2023-07-09T05:09:22;8.63;;;6.47;;
63201;SDS011;49296;48.188;11.566;2023-07-09T05:11:49;9.05;;;6.38;;
63201;SDS011;49296;48.188;11.566;2023-07-09T05:14:16;9.07;;;6.18;;
63201;SDS011;49296;48.188;11.566;2023-07-09T05:16:43;9.00;;;6.50;;
63201;SDS011;49296;48.188;11.566;2023-07-09T05:19:12;8.70;;;6.65;;
63201;SDS011;49296;48.188;11.566;2023-07-09T05:21:39;9.82;;;6.57;;
63201;SDS011;49296;48.188;11.566;2023-07-09T05:24:06;8.32;;;5.90;;
63201;SDS011;49296;48.188;11.566;2023-07-09T05:26:33;8.00;;;5.70;;
63201;SDS011;49296;48.188;11.566;2023-07-09T05:29:01;8.50;;;6.10;;
63201;SDS011;49296;48.188;11.566;2023-07-09T05:31:29;8.50;;;5.55;;
63201;SDS011;49296;48.188;11.566;2023-07-09T05:33:56;7.30;;;5.93;;
63201;SDS011;49296;48.188;11.566;2023-07-09T05:36:25;8.32;;;6.20;;
63201;SDS011;49296;48.188;11.566;2023-07-09T05:38:52;7.93;;;5.90;;
63201;SDS011;49296;48.188;11.566;2023-07-09T05:41:19;7.25;;;5.88;;
63201;SDS011;49296;48.188;11.566;2023-07-09T05:43:46;7.07;;;5.45;;
63201;SDS011;49296;48.188;11.566;2023-07-09T05:46:13;7.25;;;5.63;;
63201;SDS011;49296;48.188;11.566;2023-07-09T05:48:40;6.72;;;5.53;;
63201;SDS011;49296;48.188;11.566;2023-07-09T05:51:07;7.18;;;4.90;;
63201;SDS011;49296;48.188;11.566;2023-07-09T05:53:35;6.78;;;5.22;;
63201;SDS011;49296;48.188;11.566;2023-07-09T05:56:02;7.97;;;5.32;;
63201;SDS011;49296;48.188;11.566;2023-07-09T05:58:29;7.07;;;5.07;;
63201;SDS011;49296;48.188;11.566;2023-07-09T06:00:56;6.00;;;4.63;;
63201;SDS011;49296;48.188;11.566;2023-07-09T06:03:24;7.38;;;5.03;;
63201;SDS011;49296;48.188;11.566;2023-07-09T06:05:51;6.80;;;4.50;;
63201;SDS011;49296;48.188;11.566;2023-07-09T06:08:19;6.90;;;4.47;;
63201;SDS011;49296;48.188;11.566;2023-07-09T06:10:57;7.75;;;4.57;;
63201;SDS011;49296;48.188;11.566;2023-07-09T06:13:25;6.03;;;3.90;;
63201;SDS011;49296;48.188;11.566;2023-07-09T06:15:53;7.35;;;4.55;;
63201;SDS011;49296;48.188;11.566;2023-07-09T06:18:21;7.13;;;4.43;;
63201;SDS011;49296;48.188;11.566;2023-07-09T06:20:50;7.00;;;4.50;;
63201;SDS011;49296;48.188;11.566;2023-07-09T06:23:18;7.57;;;4.38;;
63201;SDS011;49296;48.188;11.566;2023-07-09T06:25:45;7.30;;;3.97;;
63201;SDS011;49296;48.188;11.566;2023-07-09T06:28:15;7.15;;;4.30;;
63201;SDS011;49296;48.188;11.566;2023-07-09T06:30:43;8.05;;;4.20;;
63201;SDS011;49296;48.188;11.566;2023-07-09T06:33:11;8.27;;;4.93;;
63201;SDS011;49296;48.188;11.566;2023-07-09T06:35:38;7.55;;;4.20;;
63201;SDS011;49296;48.188;11.566;2023-07-09T06:38:11;6.45;;;3.97;;
63201;SDS011;49296;48.188;11.566;2023-07-09T06:40:38;6.88;;;4.35;;
63201;SDS011;49296;48.188;11.566;2023-07-09T06:43:05;6.10;;;3.83;;
63201;SDS011;49296;48.188;11.566;2023-07-09T06:45:33;6.35;;;3.88;;
63201;SDS011;49296;48.188;11.566;2023-07-09T06:48:00;6.88;;;4.10;;
63201;SDS011;49296;48.188;11.566;2023-07-09T06:50:27;7.57;;;4.18;;
63201;SDS011;49296;48.188;11.566;2023-07-09T06:52:54;6.82;;;3.90;;
63201;SDS011;49296;48.188;11.566;2023-07-09T06:55:21;6.60;;;3.78;;
63201;SDS011;49296;48.188;11.566;2023-07-09T06:57:48;5.60;;;3.85;;
63201;SDS011;49296;48.188;11.566;2023-07-09T07:00:15;7.40;;;4.10;;
63201;SDS011;49296;48.188;11.566;2023-07-09T07:02:43;5.47;;;3.65;;
63201;SDS011;49296;48.188;11.566;2023-07-09T07:05:10;5.88;;;3.97;;
63201;SDS011;49296;48.188;11.566;2023-07-09T07:07:37;7.03;;;4.03;;
63201;SDS011;49296;48.188;11.566;2023-07-09T07:10:04;7.13;;;3.83;;
63201;SDS011;49296;48.188;11.566;2023-07-09T07:12:40;5.90;;;3.67;;
63201;SDS011;49296;48.188;11.566;2023-07-09T07:15:08;6.13;;;3.95;;
63201;SDS011;49296;48.188;11.566;2023-07-09T07:17:36;5.57;;;3.65;;
63201;SDS011;49296;48.188;11.566;2023-07-09T07:20:05;6.55;;;3.50;;
63201;SDS011;49296;48.188;11.566;2023-07-09T07:22:33;6.68;;;3.75;;
63201;SDS011;49296;48.188;11.566;2023-07-09T07:25:00;5.78;;;3.78;;
63201;SDS011;49296;48.188;11.566;2023-07-09T07:27:27;7.50;;;4.00;;
63201;SDS011;49296;48.188;11.566;2023-07-09T07:29:53;6.38;;;3.65;;
63201;SDS011;49296;48.188;11.566;2023-07-09T07:32:20;6.82;;;4.05;;
63201;SDS011;49296;48.188;11.566;2023-07-09T07:34:47;6.85;;;3.90;;
63201;SDS011;49296;48.188;11.566;2023-07-09T07:37:17;7.32;;;4.30;;
63201;SDS011;49296;48.188;11.566;2023-07-09T07:39:45;7.72;;;4.15;;
63201;SDS011;49296;48.188;11.566;2023-07-09T07:42:12;5.75;;;3.83;;
63201;SDS011;49296;48.188;11.566;2023-07-09T07:44:39;7.60;;;4.15;;
63201;SDS011;49296;48.188;11.566;2023-07-09T07:47:06;6.25;;;3.90;;
63201;SDS011;49296;48.188;11.566;2023-07-09T07:49:33;5.97;;;3.80;;
63201;SDS011;49296;48.188;11.566;2023-07-09T07:52:00;8.02;;;4.03;;
63201;SDS011;49296;48.188;11.566;2023-07-09T07:54:30;7.35;;;4.22;;
63201;SDS011;49296;48.188;11.566;2023-07-09T07:56:57;5.72;;;3.80;;
63201;SDS011;49296;48.188;11.566;2023-07-09T07:59:24;6.75;;;4.25;;
63201;SDS011;49296;48.188;11.566;2023-07-09T08:01:51;6.53;;;3.72;;
63201;SDS011;49296;48.188;11.566;2023-07-09T08:04:18;8.30;;;4.35;;
63201;SDS011;49296;48.188;11.566;2023-07-09T08:06:45;10.20;;;5.07;;
63201;SDS011;49296;48.188;11.566;2023-07-09T08:09:12;7.47;;;4.55;;
63201;SDS011;49296;48.188;11.566;2023-07-09T08:11:40;7.80;;;4.65;;
63201;SDS011;49296;48.188;11.566;2023-07-09T08:14:07;7.35;;;5.03;;
63201;SDS011;49296;48.188;11.566;2023-07-09T08:16:34;7.70;;;4.80;;
63201;SDS011;49296;48.188;11.566;2023-07-09T08:19:01;6.30;;;4.43;;
63201;SDS011;49296;48.188;11.566;2023-07-09T08:21:28;6.88;;;4.50;;
63201;SDS011;49296;48.188;11.566;2023-07-09T08:23:55;8.07;;;4.05;;
63201;SDS011;49296;48.188;11.566;2023-07-09T08:26:21;8.25;;;4.57;;
63201;SDS011;49296;48.188;11.566;2023-07-09T08:28:50;8.27;;;4.30;;
63201;SDS011;49296;48.188;11.566;2023-07-09T08:31:17;8.25;;;4.10;;
63201;SDS011;49296;48.188;11.566;2023-07-09T08:33:44;6.53;;;3.90;;
63201;SDS011;49296;48.188;11.566;2023-07-09T08:36:11;7.10;;;4.13;;
63201;SDS011;49296;48.188;11.566;2023-07-09T08:38:38;7.72;;;4.03;;
63201;SDS011;49296;48.188;11.566;2023-07-09T08:41:07;6.38;;;4.20;;
63201;SDS011;49296;48.188;11.566;2023-07-09T08:43:46;6.93;;;4.05;;
63201;SDS011;49296;48.188;11.566;2023-07-09T08:46:25;6.28;;;4.07;;
63201;SDS011;49296;48.188;11.566;2023-07-09T08:48:59;7.60;;;4.72;;
63201;SDS011;49296;48.188;11.566;2023-07-09T08:51:32;9.70;;;5.05;;
63201;SDS011;49296;48.188;11.566;2023-07-09T08:54:04;6.50;;;4.28;;
63201;SDS011;49296;48.188;11.566;2023-07-09T08:56:39;5.90;;;4.07;;
63201;SDS011;49296;48.188;11.566;2023-07-09T08:59:08;7.32;;;4.20;;
63201;SDS011;49296;48.188;11.566;2023-07-09T09:01:43;6.22;;;4.10;;
63201;SDS011;49296;48.188;11.566;2023-07-09T09:04:21;7.05;;;4.05;;
63201;SDS011;49296;48.188;11.566;2023-07-09T09:06:51;7.25;;;4.35;;
63201;SDS011;49296;48.188;11.566;2023-07-09T09:09:25;8.45;;;4.45;;
63201;SDS011;49296;48.188;11.566;2023-07-09T09:11:57;8.85;;;4.20;;
63201;SDS011;49296;48.188;11.566;2023-07-09T09:14:32;6.60;;;4.10;;
63201;SDS011;49296;48.188;11.566;2023-07-09T09:17:00;8.60;;;4.55;;
63201;SDS011;49296;48.188;11.566;2023-07-09T09:19:29;7.10;;;4.47;;
63201;SDS011;49296;48.188;11.566;2023-07-09T09:22:03;8.65;;;4.57;;
63201;SDS011;49296;48.188;11.566;2023-07-09T09:24:35;7.22;;;4.20;;
63201;SDS011;49296;48.188;11.566;2023-07-09T09:27:04;6.18;;;3.78;;
63201;SDS011;49296;48.188;11.566;2023-07-09T09:29:34;5.93;;;3.80;;
63201;SDS011;49296;48.188;11.566;2023-07-09T09:32:02;6.78;;;3.97;;
63201;SDS011;49296;48.188;11.566;2023-07-09T09:34:44;6.85;;;3.70;;
63201;SDS011;49296;48.188;11.566;2023-07-09T09:37:11;7.70;;;4.95;;
63201;SDS011;49296;48.188;11.566;2023-07-09T09:39:38;6.45;;;3.78;;
63201;SDS011;49296;48.188;11.566;2023-07-09T09:42:09;8.25;;;4.25;;
63201;SDS011;49296;48.188;11.566;2023-07-09T09:44:43;7.47;;;4.10;;
63201;SDS011;49296;48.188;11.566;2023-07-09T09:47:10;9.60;;;4.25;;
63201;SDS011;49296;48.188;11.566;2023-07-09T09:49:38;5.80;;;3.85;;
63201;SDS011;49296;48.188;11.566;2023-07-09T09:52:06;6.55;;;3.97;;
63201;SDS011;49296;48.188;11.566;2023-07-09T09:54:40;7.20;;;3.80;;
63201;SDS011;49296;48.188;11.566;2023-07-09T09:57:15;7.20;;;3.58;;
63201;SDS011;49296;48.188;11.566;2023-07-09T09:59:45;6.30;;;4.15;;
63201;SDS011;49296;48.188;11.566;2023-07-09T10:02:16;6.28;;;3.58;;
63201;SDS011;49296;48.188;11.566;2023-07-09T10:04:51;7.78;;;4.53;;
63201;SDS011;49296;48.188;11.566;2023-07-09T10:07:19;6.05;;;3.90;;
63201;SDS011;49296;48.188;11.566;2023-07-09T10:09:50;6.53;;;4.30;;
63201;SDS011;49296;48.188;11.566;2023-07-09T10:12:23;6.80;;;4.38;;
63201;SDS011;49296;48.188;11.566;2023-07-09T10:15:05;7.63;;;4.25;;
63201;SDS011;49296;48.188;11.566;2023-07-09T10:17:42;8.88;;;4.93;;
63201;SDS011;49296;48.188;11.566;2023-07-09T10:20:17;7.18;;;4.35;;
63201;SDS011;49296;48.188;11.566;2023-07-09T10:22:49;6.88;;;4.15;;
63201;SDS011;49296;48.188;11.566;2023-07-09T10:25:23;6.32;;;3.90;;
63201;SDS011;49296;48.188;11.566;2023-07-09T10:28:19;13.07;;;6.25;;
63201;SDS011;49296;48.188;11.566;2023-07-09T10:30:58;7.75;;;4.95;;
63201;SDS011;49296;48.188;11.566;2023-07-09T10:33:32;6.82;;;4.07;;
63201;SDS011;49296;48.188;11.566;2023-07-09T10:36:09;8.02;;;4.40;;
63201;SDS011;49296;48.188;11.566;2023-07-09T10:38:45;7.77;;;4.97;;
63201;SDS011;49296;48.188;11.566;2023-07-09T10:41:17;7.55;;;4.53;;
63201;SDS011;49296;48.188;11.566;2023-07-09T10:43:46;7.97;;;4.68;;
63201;SDS011;49296;48.188;11.566;2023-07-09T10:46:18;8.23;;;4.82;;
63201;SDS011;49296;48.188;11.566;2023-07-09T10:48:49;6.93;;;3.90;;
63201;SDS011;49296;48.188;11.566;2023-07-09T10:51:20;6.53;;;3.88;;
63201;SDS011;49296;48.188;11.566;2023-07-09T10:53:51;7.70;;;4.53;;
63201;SDS011;49296;48.188;11.566;2023-07-09T10:56:24;6.35;;;4.55;;
63201;SDS011;49296;48.188;11.566;2023-07-09T11:01:27;8.20;;;4.20;;
63201;SDS011;49296;48.188;11.566;2023-07-09T11:03:59;7.05;;;4.07;;
63201;SDS011;49296;48.188;11.566;2023-07-09T11:06:30;7.53;;;4.35;;
63201;SDS011;49296;48.188;11.566;2023-07-09T11:09:03;6.07;;;3.80;;
63201;SDS011;49296;48.188;11.566;2023-07-09T11:11:33;8.05;;;4.88;;
63201;SDS011;49296;48.188;11.566;2023-07-09T11:14:06;7.18;;;4.03;;
63201;SDS011;49296;48.188;11.566;2023-07-09T11:16:39;6.65;;;3.88;;
63201;SDS011;49296;48.188;11.566;2023-07-09T11:19:11;7.13;;;4.10;;
63201;SDS011;49296;48.188;11.566;2023-07-09T11:21:44;8.65;;;4.40;;
63201;SDS011;49296;48.188;11.566;2023-07-09T11:24:29;6.72;;;4.18;;
63201;SDS011;49296;48.188;11.566;2023-07-09T11:26:57;8.50;;;3.63;;
63201;SDS011;49296;48.188;11.566;2023-07-09T11:29:26;7.30;;;3.65;;
63201;SDS011;49296;48.188;11.566;2023-07-09T11:32:06;5.95;;;3.80;;
63201;SDS011;49296;48.188;11.566;2023-07-09T11:34:34;7.90;;;4.07;;
63201;SDS011;49296;48.188;11.566;2023-07-09T11:37:11;5.80;;;3.78;;
63201;SDS011;49296;48.188;11.566;2023-07-09T11:39:42;6.55;;;3.65;;
63201;SDS011;49296;48.188;11.566;2023-07-09T11:42:24;7.50;;;4.13;;
63201;SDS011;49296;48.188;11.566;2023-07-09T11:48:18;9.77;;;4.72;;
63201;SDS011;49296;48.188;11.566;2023-07-09T11:50:51;7.65;;;4.30;;
63201;SDS011;49296;48.188;11.566;2023-07-09T11:53:25;8.15;;;4.13;;
63201;SDS011;49296;48.188;11.566;2023-07-09T11:55:57;8.70;;;5.82;;
63201;SDS011;49296;48.188;11.566;2023-07-09T11:58:24;6.82;;;3.97;;
63201;SDS011;49296;48.188;11.566;2023-07-09T12:00:52;8.15;;;4.20;;
63201;SDS011;49296;48.188;11.566;2023-07-09T12:03:24;7.38;;;3.95;;
63201;SDS011;49296;48.188;11.566;2023-07-09T12:05:53;6.22;;;3.90;;
63201;SDS011;49296;48.188;11.566;2023-07-09T12:08:28;6.50;;;4.13;;
63201;SDS011;49296;48.188;11.566;2023-07-09T12:11:00;8.13;;;4.13;;
63201;SDS011;49296;48.188;11.566;2023-07-09T12:13:27;5.70;;;3.80;;
63201;SDS011;49296;48.188;11.566;2023-07-09T12:15:54;5.88;;;3.90;;
63201;SDS011;49296;48.188;11.566;2023-07-09T12:18:20;6.90;;;4.10;;
63201;SDS011;49296;48.188;11.566;2023-07-09T12:20:49;8.15;;;4.28;;
63201;SDS011;49296;48.188;11.566;2023-07-09T12:23:20;6.43;;;4.10;;
63201;SDS011;49296;48.188;11.566;2023-07-09T12:25:49;6.30;;;3.75;;
63201;SDS011;49296;48.188;11.566;2023-07-09T12:28:18;7.00;;;4.30;;
63201;SDS011;49296;48.188;11.566;2023-07-09T12:30:46;6.50;;;4.15;;
63201;SDS011;49296;48.188;11.566;2023-07-09T12:33:15;6.18;;;4.25;;
63201;SDS011;49296;48.188;11.566;2023-07-09T12:35:44;6.50;;;4.07;;
63201;SDS011;49296;48.188;11.566;2023-07-09T12:38:17;7.65;;;3.97;;
63201;SDS011;49296;48.188;11.566;2023-07-09T12:40:45;5.80;;;3.80;;
63201;SDS011;49296;48.188;11.566;2023-07-09T12:43:15;6.53;;;3.63;;
63201;SDS011;49296;48.188;11.566;2023-07-09T12:45:46;6.03;;;3.95;;
63201;SDS011;49296;48.188;11.566;2023-07-09T12:48:13;5.95;;;3.92;;
63201;SDS011;49296;48.188;11.566;2023-07-09T12:50:41;6.10;;;3.92;;
63201;SDS011;49296;48.188;11.566;2023-07-09T12:53:15;7.32;;;4.45;;
63201;SDS011;49296;48.188;11.566;2023-07-09T12:55:47;7.22;;;4.70;;
63201;SDS011;49296;48.188;11.566;2023-07-09T13:00:46;24.80;;;12.52;;
63201;SDS011;49296;48.188;11.566;2023-07-09T13:03:17;9.50;;;4.65;;
63201;SDS011;49296;48.188;11.566;2023-07-09T13:05:51;10.20;;;5.25;;
63201;SDS011;49296;48.188;11.566;2023-07-09T13:08:20;29.77;;;15.73;;
63201;SDS011;49296;48.188;11.566;2023-07-09T13:10:48;17.70;;;10.55;;
63201;SDS011;49296;48.188;11.566;2023-07-09T13:13:17;22.90;;;13.10;;
63201;SDS011;49296;48.188;11.566;2023-07-09T13:18:14;10.10;;;5.97;;
63201;SDS011;49296;48.188;11.566;2023-07-09T13:20:44;11.80;;;6.70;;
63201;SDS011;49296;48.188;11.566;2023-07-09T13:23:14;7.35;;;5.28;;
63201;SDS011;49296;48.188;11.566;2023-07-09T13:25:45;9.80;;;4.13;;
63201;SDS011;49296;48.188;11.566;2023-07-09T13:28:16;6.22;;;4.22;;
63201;SDS011;49296;48.188;11.566;2023-07-09T13:30:46;8.73;;;5.80;;
63201;SDS011;49296;48.188;11.566;2023-07-09T13:33:14;8.05;;;4.05;;
63201;SDS011;49296;48.188;11.566;2023-07-09T13:35:43;7.13;;;4.72;;
63201;SDS011;49296;48.188;11.566;2023-07-09T13:38:13;5.65;;;3.50;;
63201;SDS011;49296;48.188;11.566;2023-07-09T13:40:41;9.25;;;4.57;;
63201;SDS011;49296;48.188;11.566;2023-07-09T13:43:14;7.53;;;4.45;;
63201;SDS011;49296;48.188;11.566;2023-07-09T13:45:42;6.70;;;3.90;;
63201;SDS011;49296;48.188;11.566;2023-07-09T13:48:12;6.70;;;3.58;;
63201;SDS011;49296;48.188;11.566;2023-07-09T13:50:42;6.28;;;4.03;;
63201;SDS011;49296;48.188;11.566;2023-07-09T13:53:14;5.43;;;3.83;;
63201;SDS011;49296;48.188;11.566;2023-07-09T13:55:43;6.65;;;3.85;;
63201;SDS011;49296;48.188;11.566;2023-07-09T13:58:10;7.22;;;4.05;;
63201;SDS011;49296;48.188;11.566;2023-07-09T14:00:40;5.55;;;3.72;;
63201;SDS011;49296;48.188;11.566;2023-07-09T14:03:12;6.72;;;3.92;;
63201;SDS011;49296;48.188;11.566;2023-07-09T14:05:42;6.47;;;3.80;;
63201;SDS011;49296;48.188;11.566;2023-07-09T14:08:10;7.97;;;4.03;;
63201;SDS011;49296;48.188;11.566;2023-07-09T14:10:37;5.72;;;3.50;;
63201;SDS011;49296;48.188;11.566;2023-07-09T14:13:05;5.88;;;3.58;;
63201;SDS011;49296;48.188;11.566;2023-07-09T14:15:35;6.57;;;3.65;;
63201;SDS011;49296;48.188;11.566;2023-07-09T14:18:04;6.93;;;4.10;;
63201;SDS011;49296;48.188;11.566;2023-07-09T14:20:31;6.30;;;3.30;;
63201;SDS011;49296;48.188;11.566;2023-07-09T14:22:58;7.10;;;3.50;;
63201;SDS011;49296;48.188;11.566;2023-07-09T14:25:26;7.53;;;4.25;;
63201;SDS011;49296;48.188;11.566;2023-07-09T14:30:23;8.05;;;4.03;;
63201;SDS011;49296;48.188;11.566;2023-07-09T14:32:51;6.50;;;4.35;;
63201;SDS011;49296;48.188;11.566;2023-07-09T14:35:20;6.32;;;4.45;;
63201;SDS011;49296;48.188;11.566;2023-07-09T14:37:49;7.63;;;4.00;;
63201;SDS011;49296;48.188;11.566;2023-07-09T14:40:18;6.32;;;4.05;;
63201;SDS011;49296;48.188;11.566;2023-07-09T14:42:47;5.43;;;3.50;;
63201;SDS011;49296;48.188;11.566;2023-07-09T14:47:46;6.87;;;4.27;;
63201;SDS011;49296;48.188;11.566;2023-07-09T14:50:14;6.05;;;3.08;;
63201;SDS011;49296;48.188;11.566;2023-07-09T14:52:44;7.53;;;3.75;;
63201;SDS011;49296;48.188;11.566;2023-07-09T14:55:13;4.97;;;3.53;;
63201;SDS011;49296;48.188;11.566;2023-07-09T14:57:42;6.68;;;3.60;;
63201;SDS011;49296;48.188;11.566;2023-07-09T15:00:14;6.65;;;4.07;;
63201;SDS011;49296;48.188;11.566;2023-07-09T15:02:43;6.78;;;4.18;;
63201;SDS011;49296;48.188;11.566;2023-07-09T15:05:12;5.93;;;3.63;;